Time;durP1;ratioP1;P1;durP2;ratioP2;P2;SDS_P1;SDS_P2;PMS_P1;PMS_P2;Temp;Humidity;BMP_temperature;BMP_pressure;BME280_temperature;BME280_humidity;BME280_pressure;Samples;Min_cycle;Max_cycle;Signal;HPM_P1;HPM_P2
2022/05/31 00:00:01;;;;;;;3.72;0.60;;;10.10;99.90;;;;;;4985972;28;20053;-82
2022/05/31 00:02:42;;;;;;;2.85;0.60;;;10.10;99.90;;;;;;5000242;28;20033;-82
2022/05/31 00:05:37;;;;;;;2.08;0.85;;;10.10;99.90;;;;;;5013824;28;20060;-81
2022/05/31 00:08:36;;;;;;;1.70;0.73;;;10.00;99.90;;;;;;5016441;28;20040;-82
2022/05/31 00:11:07;;;;;;;2.50;0.70;;;10.00;99.90;;;;;;4932410;28;20050;-80
2022/05/31 00:13:35;;;;;;;2.15;0.82;;;9.90;99.90;;;;;;4951010;28;20026;-82
2022/05/31 00:16:02;;;;;;;2.85;0.70;;;9.90;99.90;;;;;;4929047;28;20035;-81
2022/05/31 00:18:36;;;;;;;2.92;0.70;;;9.90;99.90;;;;;;4929958;28;20035;-82
2022/05/31 00:22:07;;;;;;;1.83;0.80;;;9.90;99.90;;;;;;4925795;28;20031;-82
2022/05/31 00:25:00;;;;;;;1.77;0.80;;;9.90;99.90;;;;;;4916026;28;20042;-82
2022/05/31 00:27:32;;;;;;;4.57;1.13;;;9.80;99.90;;;;;;4924435;28;20046;-82
2022/05/31 00:30:09;;;;;;;2.47;1.00;;;9.80;99.90;;;;;;4969018;28;20073;-82
2022/05/31 00:33:07;;;;;;;1.77;0.80;;;9.80;99.90;;;;;;4967165;28;20066;-82
2022/05/31 00:36:15;;;;;;;3.28;0.70;;;9.80;99.90;;;;;;4920702;28;20054;-82
2022/05/31 00:38:42;;;;;;;2.70;0.90;;;9.70;99.90;;;;;;4925657;28;20039;-82
2022/05/31 00:41:24;;;;;;;2.65;1.20;;;9.70;99.90;;;;;;4899857;28;20047;-80
2022/05/31 00:44:19;;;;;;;1.70;0.65;;;9.70;99.90;;;;;;4940447;28;20039;-81
2022/05/31 00:47:40;;;;;;;3.08;0.90;;;9.70;99.90;;;;;;4959935;28;20027;-81
2022/05/31 00:51:09;;;;;;;1.88;0.80;;;9.60;99.90;;;;;;4965755;28;20054;-81
2022/05/31 00:53:57;;;;;;;4.22;0.80;;;9.60;99.90;;;;;;4966340;28;20046;-80
2022/05/31 00:56:36;;;;;;;;;;;9.50;99.90;;;;;;4965374;28;20204;-80
2022/05/31 00:59:47;;;;;;;2.60;0.88;;;9.50;99.90;;;;;;4968350;28;19925;-81
2022/05/31 01:03:14;;;;;;;1.40;0.80;;;9.50;99.90;;;;;;4927116;28;20147;-81
2022/05/31 01:06:11;;;;;;;1.30;0.70;;;9.50;99.90;;;;;;4929919;28;20035;-80
2022/05/31 01:09:02;;;;;;;1.40;0.60;;;9.50;99.90;;;;;;4946492;28;20037;-80
2022/05/31 01:11:47;;;;;;;2.22;0.60;;;9.40;99.90;;;;;;4948750;28;20058;-80
2022/05/31 01:15:50;;;;;;;1.60;0.75;;;9.40;99.90;;;;;;4949502;28;20034;-82
2022/05/31 01:18:36;;;;;;;2.95;0.80;;;9.30;99.90;;;;;;4949604;28;20050;-83
2022/05/31 01:22:20;;;;;;;2.60;0.63;;;9.30;99.90;;;;;;4948777;28;20064;-81
2022/05/31 01:25:33;;;;;;;2.60;1.00;;;9.30;99.90;;;;;;4964885;28;20046;-81
2022/05/31 01:28:47;;;;;;;1.92;0.77;;;9.20;99.90;;;;;;4910508;28;20047;-81
2022/05/31 01:31:43;;;;;;;2.97;0.80;;;9.20;99.90;;;;;;4925710;28;20523;-81
2022/05/31 01:34:45;;;;;;;1.60;0.70;;;9.10;99.90;;;;;;4946769;28;20039;-80
2022/05/31 01:38:10;;;;;;;3.05;0.70;;;9.10;99.90;;;;;;4907849;28;20517;-80
2022/05/31 01:41:22;;;;;;;5.53;1.00;;;9.10;99.90;;;;;;4926029;29;20035;-81
2022/05/31 01:44:10;;;;;;;1.35;0.70;;;9.10;99.90;;;;;;4924714;29;20487;-81
2022/05/31 01:46:36;;;;;;;2.15;0.90;;;9.00;99.90;;;;;;4972103;28;20057;-83
2022/05/31 01:49:09;;;;;;;2.28;0.77;;;9.00;99.90;;;;;;4986891;28;20521;-80
2022/05/31 01:51:40;;;;;;;1.40;0.60;;;9.00;99.90;;;;;;4982963;28;20359;-87
2022/05/31 01:54:29;;;;;;;2.03;0.88;;;9.00;99.90;;;;;;5002450;28;20056;-89
2022/05/31 01:57:01;;;;;;;3.80;0.88;;;9.00;99.90;;;;;;5015998;28;20034;-80
2022/05/31 01:59:34;;;;;;;3.28;1.10;;;9.00;99.90;;;;;;5019857;28;20048;-80
2022/05/31 02:02:06;;;;;;;26.17;13.77;;;9.00;99.90;;;;;;4986358;28;20497;-80
2022/05/31 02:04:36;;;;;;;35.25;20.30;;;9.10;99.90;;;;;;4973761;28;20049;-80
2022/05/31 02:07:28;;;;;;;40.63;24.20;;;9.10;99.90;;;;;;4984099;28;20029;-80
2022/05/31 02:10:08;;;;;;;47.40;24.65;;;9.20;99.90;;;;;;5002799;28;20053;-80
2022/05/31 02:12:47;;;;;;;33.67;20.13;;;9.20;99.90;;;;;;4988185;28;20022;-80
2022/05/31 02:15:24;;;;;;;17.00;10.25;;;9.20;99.90;;;;;;5005822;28;20052;-80
2022/05/31 02:18:18;;;;;;;14.43;7.50;;;9.30;99.90;;;;;;5004800;28;20044;-81
2022/05/31 02:20:56;;;;;;;7.53;4.30;;;9.40;99.90;;;;;;5001565;28;20045;-80
2022/05/31 02:23:23;;;;;;;5.57;2.35;;;9.40;99.90;;;;;;5005752;28;20504;-84
2022/05/31 02:25:49;;;;;;;4.25;2.42;;;9.40;99.90;;;;;;5011075;28;20045;-84
2022/05/31 02:28:25;;;;;;;3.03;1.45;;;9.50;99.90;;;;;;5006040;28;20041;-83
2022/05/31 02:30:51;;;;;;;2.95;1.60;;;9.60;99.90;;;;;;4991598;28;20042;-83
2022/05/31 02:33:18;;;;;;;3.40;1.40;;;9.60;99.90;;;;;;4993451;28;20381;-84
2022/05/31 02:35:44;;;;;;;2.47;1.45;;;9.60;99.90;;;;;;4992935;28;20044;-82
2022/05/31 02:38:11;;;;;;;3.25;1.40;;;9.70;99.90;;;;;;4991283;28;20415;-82
2022/05/31 02:40:38;;;;;;;2.58;1.52;;;9.70;99.90;;;;;;5001700;28;20117;-82
2022/05/31 02:43:07;;;;;;;3.80;1.92;;;9.70;99.90;;;;;;5025573;28;20054;-82
2022/05/31 02:45:34;;;;;;;3.42;1.52;;;9.70;99.90;;;;;;4991811;28;20037;-82
2022/05/31 02:48:01;;;;;;;3.38;2.10;;;9.70;99.90;;;;;;4987205;28;20037;-82
2022/05/31 02:50:27;;;;;;;4.70;1.92;;;9.60;99.90;;;;;;4991575;28;20068;-82
2022/05/31 02:52:54;;;;;;;2.13;1.10;;;9.60;99.90;;;;;;5006995;28;20041;-82
2022/05/31 02:55:21;;;;;;;2.90;1.98;;;9.50;99.90;;;;;;5025794;28;20044;-84
2022/05/31 02:58:32;;;;;;;3.03;1.70;;;9.40;99.90;;;;;;5008849;28;20033;-82
2022/05/31 03:01:47;;;;;;;3.88;1.98;;;9.30;99.90;;;;;;4999476;28;20034;-82
2022/05/31 03:04:32;;;;;;;2.15;1.30;;;9.20;99.90;;;;;;5044337;28;20028;-83
2022/05/31 03:07:18;;;;;;;3.22;1.60;;;9.10;99.90;;;;;;4994724;28;20051;-82
2022/05/31 03:10:10;;;;;;;4.07;1.88;;;9.10;99.90;;;;;;5016012;28;20040;-83
2022/05/31 03:12:37;;;;;;;4.53;1.77;;;9.10;99.90;;;;;;5012864;28;20500;-83
2022/05/31 03:15:14;;;;;;;3.45;1.63;;;9.10;99.90;;;;;;5005545;28;20488;-83
2022/05/31 03:17:45;;;;;;;1.98;1.15;;;9.10;99.90;;;;;;5005700;28;20024;-83
2022/05/31 03:20:32;;;;;;;5.05;1.52;;;9.10;99.90;;;;;;5010496;28;20037;-82
2022/05/31 03:23:29;;;;;;;3.72;1.70;;;9.10;99.90;;;;;;5014490;28;20665;-83
2022/05/31 03:26:01;;;;;;;5.82;2.28;;;9.10;99.90;;;;;;5013461;28;20041;-83
2022/05/31 03:28:40;;;;;;;4.85;1.95;;;9.10;99.90;;;;;;5038908;28;20029;-83
2022/05/31 03:31:12;;;;;;;2.75;1.55;;;9.10;99.90;;;;;;5038872;28;20045;-83
2022/05/31 03:33:46;;;;;;;5.88;2.58;;;9.20;99.90;;;;;;5015812;28;20404;-82
2022/05/31 03:36:28;;;;;;;2.92;1.80;;;9.20;99.90;;;;;;5038472;28;20056;-82
2022/05/31 03:39:05;;;;;;;3.17;1.85;;;9.20;99.90;;;;;;4993083;28;20481;-83
2022/05/31 03:41:35;;;;;;;4.53;2.45;;;9.20;99.90;;;;;;4990622;28;20041;-83
2022/05/31 03:44:10;;;;;;;2.58;1.95;;;9.30;99.90;;;;;;4997214;28;20051;-83
2022/05/31 03:46:55;;;;;;;4.72;2.17;;;9.30;99.90;;;;;;5040396;28;20029;-83
2022/05/31 03:49:55;;;;;;;3.03;1.05;;;9.30;99.90;;;;;;5008320;28;20040;-83
2022/05/31 03:52:25;;;;;;;4.45;3.10;;;9.30;99.90;;;;;;5029227;28;20044;-82
2022/05/31 03:55:12;;;;;;;5.70;3.15;;;9.30;99.90;;;;;;5011525;28;20050;-83
2022/05/31 03:57:51;;;;;;;3.47;2.20;;;9.30;99.90;;;;;;5035717;28;20033;-83
2022/05/31 04:00:54;;;;;;;4.22;2.40;;;9.30;99.90;;;;;;4983945;28;20042;-84
2022/05/31 04:03:29;;;;;;;3.92;2.75;;;9.40;99.90;;;;;;5018601;28;20037;-83
2022/05/31 04:06:05;;;;;;;4.43;2.70;;;9.30;99.90;;;;;;5010187;28;20036;-83
2022/05/31 04:08:39;;;;;;;6.90;2.95;;;9.40;99.90;;;;;;5021539;28;20033;-81
2022/05/31 04:11:08;;;;;;;4.20;2.25;;;9.40;99.90;;;;;;5007913;28;20766;-81
2022/05/31 04:13:38;;;;;;;5.18;2.83;;;9.50;99.90;;;;;;5026489;28;20041;-81
2022/05/31 04:16:26;;;;;;;6.63;2.47;;;9.50;99.90;;;;;;5041038;28;20365;-81
2022/05/31 04:19:03;;;;;;;3.42;1.65;;;9.50;99.90;;;;;;5029763;28;20062;-80
2022/05/31 04:21:33;;;;;;;6.00;3.05;;;9.60;99.90;;;;;;5011693;28;20041;-80
2022/05/31 04:24:04;;;;;;;4.03;2.55;;;9.70;99.90;;;;;;5049254;28;20029;-81
2022/05/31 04:26:48;;;;;;;4.97;2.75;;;9.70;99.90;;;;;;5041532;28;20045;-81
2022/05/31 04:29:35;;;;;;;5.47;3.00;;;9.80;99.90;;;;;;5013328;28;20034;-80
2022/05/31 04:32:22;;;;;;;4.18;3.15;;;9.70;99.90;;;;;;5041310;28;20601;-82
2022/05/31 04:35:01;;;;;;;4.53;2.95;;;9.80;99.90;;;;;;5021824;28;20319;-80
2022/05/31 04:37:31;;;;;;;5.53;3.45;;;9.80;99.90;;;;;;5015112;28;20056;-82
2022/05/31 04:40:10;;;;;;;6.28;3.33;;;9.90;99.90;;;;;;5026900;28;20040;-83
2022/05/31 04:42:42;;;;;;;5.88;3.58;;;9.90;99.90;;;;;;5026529;28;20361;-81
2022/05/31 04:45:14;;;;;;;6.88;3.60;;;10.00;99.90;;;;;;5041531;28;20029;-80
2022/05/31 04:47:43;;;;;;;5.85;4.15;;;10.10;99.90;;;;;;4990764;28;20040;-81
2022/05/31 04:50:10;;;;;;;8.05;4.07;;;10.20;99.90;;;;;;5008564;28;20066;-81
2022/05/31 04:53:13;;;;;;;6.15;4.07;;;10.30;99.90;;;;;;5012855;28;20393;-80
2022/05/31 04:56:11;;;;;;;4.32;2.83;;;10.40;99.90;;;;;;5005081;28;20038;-80
2022/05/31 04:59:02;;;;;;;4.38;3.33;;;10.50;99.90;;;;;;4970408;28;20053;-81
2022/05/31 05:01:40;;;;;;;6.13;3.67;;;10.60;99.90;;;;;;4978718;28;20049;-81
2022/05/31 05:04:40;;;;;;;5.53;3.47;;;10.70;99.90;;;;;;5000148;28;20096;-81
2022/05/31 05:07:27;;;;;;;9.13;4.07;;;10.70;99.90;;;;;;4982078;28;20037;-81
2022/05/31 05:10:23;;;;;;;4.85;2.90;;;10.80;99.90;;;;;;4949849;28;20038;-82
2022/05/31 05:13:04;;;;;;;4.72;3.28;;;10.90;99.90;;;;;;5004557;28;20092;-82
2022/05/31 05:16:07;;;;;;;6.00;2.67;;;10.90;99.90;;;;;;5003997;28;20050;-82
2022/05/31 05:18:38;;;;;;;6.85;3.40;;;11.00;99.90;;;;;;5005536;28;20414;-81
2022/05/31 05:21:33;;;;;;;7.13;3.97;;;11.10;99.90;;;;;;4994229;28;20510;-81
2022/05/31 05:24:04;;;;;;;5.72;3.28;;;11.20;99.90;;;;;;4974529;28;20427;-81
2022/05/31 05:26:50;;;;;;;6.45;3.00;;;11.20;99.90;;;;;;5000062;28;20088;-81
2022/05/31 05:33:10;;;;;;;7.05;3.50;;;11.30;99.90;;;;;;4987988;28;19956;-83
2022/05/31 05:36:21;;;;;;;6.10;3.45;;;11.30;99.90;;;;;;5000862;28;20069;-81
2022/05/31 05:38:53;;;;;;;4.05;2.60;;;11.40;99.90;;;;;;4989328;28;20080;-82
2022/05/31 05:41:42;;;;;;;5.55;2.85;;;11.50;99.90;;;;;;5002433;28;20034;-83
2022/05/31 05:44:36;;;;;;;3.88;2.75;;;11.60;99.90;;;;;;5003967;28;20038;-81
2022/05/31 05:47:37;;;;;;;7.43;3.40;;;11.70;99.90;;;;;;4955648;28;20054;-80
2022/05/31 05:50:14;;;;;;;6.38;3.15;;;11.70;99.90;;;;;;4952765;28;20046;-80
2022/05/31 05:53:04;;;;;;;3.53;2.60;;;11.80;99.90;;;;;;4968224;28;20528;-81
2022/05/31 05:55:44;;;;;;;5.68;2.70;;;11.80;99.90;;;;;;4949402;28;20059;-81
2022/05/31 05:58:38;;;;;;;5.28;3.30;;;11.90;99.90;;;;;;4960871;28;20513;-81
2022/05/31 06:02:29;;;;;;;9.02;4.13;;;11.90;99.90;;;;;;4910557;29;20412;-81
2022/05/31 06:05:43;;;;;;;5.30;3.08;;;12.00;99.90;;;;;;4945763;28;20043;-82
2022/05/31 06:08:38;;;;;;;4.32;2.50;;;12.10;99.90;;;;;;4963166;28;20153;-81
2022/05/31 06:11:46;;;;;;;6.57;3.17;;;12.10;99.90;;;;;;4952841;28;20039;-81
2022/05/31 06:14:32;;;;;;;8.80;4.28;;;12.20;99.90;;;;;;4953904;28;20045;-81
2022/05/31 06:17:35;;;;;;;5.13;2.55;;;12.30;99.90;;;;;;4961147;28;20046;-82
2022/05/31 06:21:05;;;;;;;8.07;3.33;;;12.40;99.90;;;;;;4968731;28;20026;-81
2022/05/31 06:24:23;;;;;;;3.78;3.30;;;12.50;99.90;;;;;;4972554;28;20166;-82
2022/05/31 06:26:55;;;;;;;5.03;3.10;;;12.60;99.90;;;;;;4950637;28;20149;-81
2022/05/31 06:29:56;;;;;;;5.25;3.65;;;12.70;99.90;;;;;;4986452;28;20031;-81
2022/05/31 06:32:32;;;;;;;3.40;2.95;;;12.80;99.90;;;;;;4997577;28;20045;-81
2022/05/31 06:35:16;;;;;;;5.30;3.35;;;12.90;99.90;;;;;;5010511;28;20093;-81
2022/05/31 06:38:21;;;;;;;4.95;2.95;;;12.90;99.90;;;;;;4985897;28;21034;-83
2022/05/31 06:41:13;;;;;;;6.95;3.53;;;13.00;99.90;;;;;;4954485;28;20057;-84
2022/05/31 06:44:02;;;;;;;5.18;3.67;;;13.10;99.90;;;;;;5030498;28;20045;-84
2022/05/31 06:46:47;;;;;;;6.57;4.00;;;13.10;99.90;;;;;;5032581;28;20035;-84
2022/05/31 06:49:40;;;;;;;4.43;3.00;;;13.20;99.90;;;;;;4979999;28;20034;-83
2022/05/31 06:58:53;;;;;;;5.50;2.85;;;13.40;99.90;;;;;;5022777;28;20045;-89
2022/05/31 07:01:20;;;;;;;4.80;2.30;;;13.50;99.90;;;;;;5008216;28;20361;-84
2022/05/31 07:03:48;;;;;;;4.53;3.10;;;13.60;99.90;;;;;;5007270;28;20038;-85
2022/05/31 07:06:15;;;;;;;4.38;2.90;;;13.60;99.90;;;;;;5011882;28;20343;-85
2022/05/31 07:08:48;;;;;;;4.38;3.15;;;13.70;99.90;;;;;;5026132;28;20029;-84
2022/05/31 07:11:25;;;;;;;5.20;3.55;;;13.80;99.90;;;;;;5010418;28;20037;-80
2022/05/31 07:14:10;;;;;;;6.07;3.03;;;13.80;99.90;;;;;;5024724;28;20041;-84
2022/05/31 07:16:55;;;;;;;6.18;3.50;;;13.90;99.90;;;;;;5009527;28;20051;-86
2022/05/31 07:19:42;;;;;;;7.22;3.60;;;14.00;99.90;;;;;;5010776;28;20041;-84
2022/05/31 07:22:09;;;;;;;8.70;5.25;;;14.10;99.90;;;;;;5006862;28;20629;-85
2022/05/31 07:24:43;;;;;;;7.47;3.80;;;14.10;99.90;;;;;;5016807;28;20048;-84
2022/05/31 07:27:22;;;;;;;5.22;2.97;;;14.10;99.90;;;;;;5018460;28;20068;-84
2022/05/31 07:29:55;;;;;;;6.65;4.38;;;14.20;99.90;;;;;;5011656;28;20041;-85
2022/05/31 07:32:22;;;;;;;5.07;3.63;;;14.30;99.90;;;;;;5006083;28;20038;-85
2022/05/31 07:34:49;;;;;;;6.68;3.28;;;14.30;99.90;;;;;;5010640;28;20069;-84
2022/05/31 07:37:17;;;;;;;5.63;3.33;;;14.30;99.90;;;;;;5006658;28;20045;-85
2022/05/31 07:39:44;;;;;;;7.72;2.90;;;14.30;99.90;;;;;;4993516;28;20385;-85
2022/05/31 07:42:11;;;;;;;5.10;3.10;;;14.30;99.90;;;;;;5006946;28;20042;-85
2022/05/31 07:44:54;;;;;;;3.90;2.58;;;14.40;99.90;;;;;;5037391;28;20033;-85
2022/05/31 07:47:34;;;;;;;4.90;3.40;;;14.40;99.90;;;;;;5017382;28;20049;-85
2022/05/31 07:50:14;;;;;;;8.45;4.05;;;14.50;99.90;;;;;;5015308;28;20029;-85
2022/05/31 07:53:03;;;;;;;6.20;3.67;;;14.50;99.90;;;;;;5020988;28;20049;-84
2022/05/31 07:56:10;;;;;;;5.43;2.83;;;14.60;99.90;;;;;;4916346;28;20052;-84
2022/05/31 07:59:27;;;;;;;7.38;3.67;;;14.80;99.90;;;;;;4929204;28;20035;-85
2022/05/31 08:02:37;;;;;;;6.85;3.25;;;14.90;99.90;;;;;;4929182;29;20401;-85
2022/05/31 08:05:08;;;;;;;5.05;3.00;;;15.10;99.90;;;;;;4922141;29;20213;-84
2022/05/31 08:07:39;;;;;;;4.82;3.20;;;15.10;99.90;;;;;;4902235;29;20044;-85
2022/05/31 08:10:08;;;;;;;5.80;3.60;;;15.20;99.90;;;;;;4921800;29;20036;-84
2022/05/31 08:12:41;;;;;;;5.80;2.70;;;15.10;99.90;;;;;;4892347;29;20428;-85
2022/05/31 08:15:11;;;;;;;6.63;3.25;;;15.20;99.90;;;;;;4966411;28;20584;-84
2022/05/31 08:18:12;;;;;;;6.65;4.13;;;15.20;99.90;;;;;;4993352;28;20053;-85
2022/05/31 08:20:48;;;;;;;5.22;3.58;;;15.30;99.90;;;;;;4980869;28;20537;-85
2022/05/31 08:23:30;;;;;;;8.30;3.35;;;15.30;99.90;;;;;;4993354;28;20045;-84
2022/05/31 08:26:01;;;;;;;4.68;3.25;;;15.30;99.90;;;;;;4981779;28;20050;-85
2022/05/31 08:28:32;;;;;;;6.90;3.80;;;15.40;99.90;;;;;;4968830;28;20038;-85
2022/05/31 08:31:31;;;;;;;7.75;4.15;;;15.50;99.90;;;;;;4978396;28;20431;-85
2022/05/31 08:34:13;;;;;;;6.93;3.90;;;15.60;99.90;;;;;;4980716;28;20416;-85
2022/05/31 08:36:43;;;;;;;4.53;2.90;;;15.70;99.90;;;;;;5011233;28;20056;-85
2022/05/31 08:39:18;;;;;;;5.32;3.65;;;15.80;99.90;;;;;;4976097;28;20042;-86
2022/05/31 08:41:51;;;;;;;5.13;4.30;;;15.90;99.90;;;;;;5008930;28;20499;-85
2022/05/31 08:44:57;;;;;;;6.57;3.65;;;15.90;99.90;;;;;;5006696;28;20021;-84
2022/05/31 08:47:59;;;;;;;5.32;2.95;;;16.00;99.90;;;;;;5017267;28;20037;-85
2022/05/31 08:53:43;;;;;;;7.38;3.78;;;16.20;99.70;;;;;;5023088;28;20057;-85
2022/05/31 08:59:17;;;;;;;7.68;3.22;;;16.50;99.50;;;;;;5004344;28;20036;-85
2022/05/31 09:01:59;;;;;;;4.60;3.17;;;16.60;99.20;;;;;;5004956;28;20025;-84
2022/05/31 09:04:41;;;;;;;5.38;3.83;;;16.70;99.00;;;;;;5018250;28;20522;-85
2022/05/31 09:07:22;;;;;;;6.78;3.08;;;16.80;98.90;;;;;;4999627;28;20041;-85
2022/05/31 09:10:17;;;;;;;5.47;3.78;;;16.90;98.70;;;;;;5007923;28;20034;-85
2022/05/31 09:13:21;;;;;;;8.48;3.63;;;16.90;98.50;;;;;;5013644;28;20036;-84
2022/05/31 09:16:51;;;;;;;6.78;3.50;;;16.90;98.10;;;;;;5025568;28;20060;-84
2022/05/31 09:23:33;;;;;;;4.20;2.78;;;17.00;97.90;;;;;;5038628;28;20033;-84
2022/05/31 09:26:51;;;;;;;;;;;;;;;;;;;;;
2022/05/31 09:30:07;;;;;;;3.90;3.00;;;17.20;97.40;;;;;;5025091;28;20060;-84
2022/05/31 09:33:34;;;;;;;5.72;3.30;;;17.40;97.10;;;;;;5024905;28;20048;-84
2022/05/31 09:37:02;;;;;;;4.03;2.70;;;18.10;96.10;;;;;;4990503;28;20061;-84
2022/05/31 09:40:33;;;;;;;3.38;2.20;;;18.60;95.40;;;;;;4969337;28;20046;-83
2022/05/31 09:43:19;;;;;;;5.45;2.80;;;19.00;94.20;;;;;;4988058;28;20042;-84
2022/05/31 09:45:54;;;;;;;3.30;2.22;;;19.20;93.90;;;;;;5002228;28;20056;-83
2022/05/31 09:48:21;;;;;;;4.25;2.78;;;19.60;93.60;;;;;;4977481;28;20049;-84
2022/05/31 09:50:47;;;;;;;4.25;2.40;;;19.80;93.30;;;;;;4953704;28;20053;-84
2022/05/31 09:59:12;;;;;;;6.45;3.75;;;20.90;91.40;;;;;;5019267;28;20042;-82
2022/05/31 10:02:17;;;;;;;4.95;2.72;;;21.20;89.90;;;;;;4964214;28;20208;-83
2022/05/31 10:04:49;;;;;;;3.00;2.03;;;21.30;87.20;;;;;;5003814;28;20029;-83
2022/05/31 10:07:36;;;;;;;4.55;1.63;;;21.40;86.50;;;;;;4982388;28;20378;-83
2022/05/31 10:10:15;;;;;;;5.20;2.20;;;21.50;85.60;;;;;;5008601;28;20041;-84
2022/05/31 10:13:09;;;;;;;3.63;1.88;;;21.40;84.40;;;;;;5012314;28;20040;-84
2022/05/31 10:15:55;;;;;;;2.45;1.05;;;21.10;84.00;;;;;;5010784;28;20488;-83
2022/05/31 10:18:30;;;;;;;5.15;1.40;;;20.80;84.20;;;;;;5031482;28;20014;-84
2022/05/31 10:21:02;;;;;;;3.28;1.00;;;20.90;84.80;;;;;;5022122;28;20040;-84
2022/05/31 10:23:43;;;;;;;3.22;1.00;;;21.20;83.40;;;;;;5041005;28;20044;-83
2022/05/31 10:26:32;;;;;;;3.70;1.13;;;21.60;82.80;;;;;;5022900;28;20037;-82
2022/05/31 10:29:27;;;;;;;3.25;1.30;;;22.10;81.70;;;;;;5023262;28;20037;-82
2022/05/31 10:32:32;;;;;;;2.55;0.90;;;22.40;79.10;;;;;;5008150;28;20033;-85
2022/05/31 10:35:25;;;;;;;2.55;1.20;;;22.60;77.50;;;;;;5021809;28;20034;-84
2022/05/31 10:38:18;;;;;;;4.22;0.90;;;22.80;76.30;;;;;;5024077;28;20025;-84
2022/05/31 10:40:50;;;;;;;3.03;1.40;;;22.90;75.80;;;;;;5024154;28;20033;-84
2022/05/31 10:43:40;;;;;;;5.03;1.90;;;23.00;74.20;;;;;;5012265;28;21314;-84
2022/05/31 10:46:21;;;;;;;4.03;1.48;;;23.20;73.40;;;;;;5011249;28;20041;-84
2022/05/31 10:48:50;;;;;;;1.98;1.05;;;23.30;72.60;;;;;;5023467;28;20049;-84
2022/05/31 10:51:57;;;;;;;1.75;0.60;;;23.50;72.00;;;;;;5008399;28;20038;-84
2022/05/31 10:55:12;;;;;;;2.92;1.00;;;23.80;71.90;;;;;;5013913;28;20062;-85
2022/05/31 10:58:33;;;;;;;2.35;1.40;;;24.20;70.70;;;;;;4988917;28;20052;-84
2022/05/31 11:01:40;;;;;;;4.93;2.00;;;24.40;68.20;;;;;;4983665;28;20061;-84
2022/05/31 11:04:35;;;;;;;2.20;1.02;;;24.40;67.00;;;;;;4994217;28;20049;-84
2022/05/31 11:11:49;;;;;;;4.03;1.50;;;25.00;65.50;;;;;;4911054;28;20108;-83
2022/05/31 11:14:31;;;;;;;2.28;0.90;;;25.20;63.20;;;;;;4944099;28;20482;-83
2022/05/31 11:17:41;;;;;;;3.35;1.35;;;25.30;62.40;;;;;;4955623;28;20433;-82
2022/05/31 11:20:37;;;;;;;3.30;0.90;;;25.60;61.30;;;;;;4926691;28;20050;-83
2022/05/31 11:23:17;;;;;;;2.85;0.80;;;25.80;60.40;;;;;;4936101;28;20494;-84
2022/05/31 11:26:07;;;;;;;2.90;1.50;;;26.10;58.60;;;;;;4912394;28;20034;-86
2022/05/31 11:28:41;;;;;;;5.20;3.70;;;26.50;57.70;;;;;;4942906;28;20162;-84
2022/05/31 11:31:39;;;;;;;3.30;1.42;;;26.70;55.70;;;;;;4964273;28;20050;-85
2022/05/31 11:34:55;;;;;;;2.63;0.88;;;26.80;55.20;;;;;;4980118;28;20133;-85
2022/05/31 11:37:57;;;;;;;2.80;1.20;;;26.90;54.20;;;;;;4939801;28;20086;-85
2022/05/31 11:40:30;;;;;;;2.88;0.90;;;27.30;53.20;;;;;;5025293;28;20040;-85
2022/05/31 11:43:32;;;;;;;2.65;0.88;;;27.80;51.90;;;;;;4990482;28;20033;-85
2022/05/31 11:46:43;;;;;;;3.10;0.80;;;28.10;51.40;;;;;;4969204;28;20050;-85
2022/05/31 11:49:50;;;;;;;1.60;0.80;;;28.70;49.80;;;;;;4985098;28;20046;-85
2022/05/31 11:52:50;;;;;;;1.95;0.50;;;28.60;49.30;;;;;;4980320;28;20043;-85
2022/05/31 11:59:09;;;;;;;2.22;0.70;;;28.00;49.40;;;;;;4943815;28;20043;-84
2022/05/31 12:02:13;;;;;;;1.38;0.60;;;28.70;47.00;;;;;;4944200;28;20061;-85
2022/05/31 12:05:01;;;;;;;2.50;0.50;;;29.10;45.50;;;;;;4964584;28;20030;-85
2022/05/31 12:07:49;;;;;;;2.00;0.60;;;29.40;45.70;;;;;;4971123;28;20089;-84
2022/05/31 12:13:59;;;;;;;1.50;0.50;;;30.70;44.90;;;;;;4944124;28;20045;-85
2022/05/31 12:16:28;;;;;;;1.13;0.40;;;31.10;41.90;;;;;;4950332;28;20401;-85
2022/05/31 12:19:14;;;;;;;1.23;0.47;;;30.90;41.10;;;;;;5000607;28;20030;-84
2022/05/31 12:22:12;;;;;;;1.58;0.52;;;31.00;42.00;;;;;;4985955;28;20045;-86
2022/05/31 12:25:37;;;;;;;1.77;0.60;;;31.60;41.30;;;;;;4980454;28;20414;-86
2022/05/31 12:28:55;;;;;;;2.10;0.70;;;31.80;39.80;;;;;;4976906;28;20517;-85
2022/05/31 12:35:58;;;;;;;2.20;0.90;;;32.20;39.00;;;;;;4977853;28;20050;-84
2022/05/31 12:39:37;;;;;;;2.85;1.00;;;31.30;38.20;;;;;;4910782;28;20553;-90
2022/05/31 12:43:41;;;;;;;1.30;0.50;;;30.70;39.40;;;;;;4840164;29;20634;-86
2022/05/31 12:50:47;;;;;;;2.53;0.50;;;32.40;39.20;;;;;;4957942;28;20522;-86
2022/05/31 13:01:24;;;;;;;3.45;0.60;;;34.20;36.50;;;;;;4920332;28;20050;-86
2022/05/31 13:04:28;;;;;;;2.03;0.60;;;34.30;35.10;;;;;;4950687;28;20039;-86
2022/05/31 13:07:18;;;;;;;1.40;0.50;;;33.70;35.90;;;;;;4950395;28;20043;-87
2022/05/31 13:10:23;;;;;;;1.80;0.50;;;33.70;35.90;;;;;;4963674;28;20054;-87
2022/05/31 13:20:11;;;;;;;1.38;0.55;;;33.30;36.70;;;;;;4911675;28;20038;-86
2022/05/31 13:23:04;;;;;;;1.58;0.50;;;32.00;37.00;;;;;;4931707;28;20042;-86
2022/05/31 13:26:09;;;;;;;1.38;0.45;;;30.60;38.20;;;;;;4943875;28;20059;-86
2022/05/31 13:29:16;;;;;;;3.25;0.40;;;29.50;39.10;;;;;;4926581;29;20051;-87
2022/05/31 13:38:38;;;;;;;2.03;0.40;;;26.30;42.40;;;;;;4949606;28;19913;-87
2022/05/31 13:42:13;;;;;;;1.02;0.43;;;25.70;43.00;;;;;;4947281;28;20066;-84
2022/05/31 13:44:46;;;;;;;2.17;0.60;;;25.20;43.80;;;;;;4937544;28;20046;-85
2022/05/31 13:47:20;;;;;;;2.60;0.60;;;24.80;44.00;;;;;;4977716;28;20049;-88
2022/05/31 13:50:29;;;;;;;2.63;0.75;;;24.40;44.30;;;;;;4976785;28;20042;-89
2022/05/31 13:53:43;;;;;;;1.17;0.50;;;24.00;44.90;;;;;;4959035;28;20033;-90
2022/05/31 13:56:43;;;;;;;2.08;0.60;;;23.70;45.40;;;;;;4979989;28;20053;-90
2022/05/31 13:59:50;;;;;;;2.28;1.45;;;23.40;46.10;;;;;;5002383;28;20389;-89
2022/05/31 14:02:52;;;;;;;2.80;1.60;;;23.30;46.40;;;;;;5022065;28;20385;-89
2022/05/31 14:05:47;;;;;;;2.53;0.80;;;23.20;47.10;;;;;;5021198;28;20398;-88
2022/05/31 14:08:46;;;;;;;2.63;0.80;;;23.10;47.30;;;;;;4983564;28;20038;-84
2022/05/31 14:12:20;;;;;;;2.65;1.27;;;23.10;47.70;;;;;;5010260;28;20389;-82
2022/05/31 14:15:27;;;;;;;9.68;7.35;;;22.80;48.40;;;;;;5021791;28;20038;-82
2022/05/31 14:18:12;;;;;;;6.90;4.90;;;22.50;49.10;;;;;;5014204;28;20034;-82
2022/05/31 14:20:53;;;;;;;6.10;4.10;;;22.30;49.70;;;;;;5015468;28;20049;-81
2022/05/31 14:28:09;;;;;;;2.88;1.40;;;21.90;50.40;;;;;;4912161;29;20035;-83
2022/05/31 14:31:26;;;;;;;2.90;1.27;;;21.70;52.00;;;;;;4876251;29;20065;-82
2022/05/31 14:34:51;;;;;;;3.45;1.35;;;21.30;53.90;;;;;;4858961;29;20244;-82
2022/05/31 14:38:00;;;;;;;3.03;1.77;;;20.90;56.80;;;;;;4858532;29;20173;-82
2022/05/31 14:40:56;;;;;;;3.42;2.05;;;20.40;59.20;;;;;;4889208;29;20053;-82
2022/05/31 14:47:07;;;;;;;3.30;1.23;;;19.70;61.00;;;;;;4898448;29;20148;-87
2022/05/31 14:50:41;;;;;;;2.97;1.00;;;19.40;61.20;;;;;;4895325;29;20598;-86
2022/05/31 14:53:17;;;;;;;3.22;1.77;;;19.10;62.10;;;;;;4906861;29;20063;-86
2022/05/31 14:56:06;;;;;;;2.28;1.05;;;18.90;63.60;;;;;;4975690;28;20030;-85
2022/05/31 14:59:31;;;;;;;2.28;0.93;;;18.80;65.20;;;;;;4957909;28;20414;-84
2022/05/31 15:03:32;;;;;;;1.33;0.60;;;18.70;67.40;;;;;;4961129;28;20046;-84
2022/05/31 15:06:50;;;;;;;1.90;0.85;;;18.70;68.30;;;;;;4984541;28;20033;-84
2022/05/31 15:10:21;;;;;;;1.95;0.90;;;18.70;69.40;;;;;;4995750;28;20054;-84
2022/05/31 15:21:41;;;;;;;2.15;0.60;;;19.40;71.60;;;;;;4970197;28;20077;-84
2022/05/31 15:25:12;;;;;;;2.10;0.90;;;19.50;70.90;;;;;;4992722;28;20377;-85
2022/05/31 15:29:05;;;;;;;1.90;0.70;;;19.30;71.60;;;;;;4999590;28;20037;-85
2022/05/31 15:37:18;;;;;;;6.05;1.70;;;18.60;73.70;;;;;;4988235;28;20050;-86
2022/05/31 15:39:58;;;;;;;4.13;1.73;;;18.40;75.70;;;;;;4985746;28;20046;-86
2022/05/31 15:42:29;;;;;;;2.95;1.65;;;18.40;76.30;;;;;;4995502;28;20026;-86
2022/05/31 15:49:18;;;;;;;3.92;1.98;;;18.20;77.70;;;;;;4948713;28;20046;-86
2022/05/31 15:52:15;;;;;;;4.05;1.90;;;18.00;78.70;;;;;;4893203;29;20036;-86
2022/05/31 15:56:19;;;;;;;5.47;2.65;;;17.80;79.40;;;;;;4871390;29;20142;-85
2022/05/31 15:59:36;;;;;;;2.40;1.77;;;17.70;80.10;;;;;;4848026;29;20057;-86
2022/05/31 16:07:45;;;;;;;4.82;2.28;;;17.60;81.00;;;;;;4900639;29;20064;-87
2022/05/31 16:10:55;;;;;;;2.83;1.70;;;17.90;81.40;;;;;;4890678;29;20044;-86
2022/05/31 16:14:55;;;;;;;3.03;2.37;;;18.00;81.60;;;;;;4897153;29;20064;-85
2022/05/31 16:18:56;;;;;;;3.70;2.05;;;18.10;81.40;;;;;;4835028;29;20045;-88
2022/05/31 16:21:35;;;;;;;4.20;2.72;;;18.10;81.40;;;;;;4889406;29;20418;-85
2022/05/31 16:25:06;;;;;;;4.85;3.92;;;18.20;81.80;;;;;;4906726;29;20043;-84
2022/05/31 16:31:36;;;;;;;5.40;3.65;;;18.30;81.20;;;;;;4933197;28;20059;-84
2022/05/31 16:41:33;;;;;;;4.25;1.90;;;17.50;82.40;;;;;;4924192;28;21379;-89